Skip Navigation Links
NOAA logo - Click to go to the NOAA homepage
NOAA's National Weather Service
Alaska Aviation Weather Unit
  NWS logo - Click to go to the NWS homepage
Left Navbar Graphic     22 AKDT = 06 GMT

   
NOAA is celebrating 200 years of science, service, and stewardship. Visit the NOAA 200th celebration Web site to learn more.
USA.gov is the U.S. Government's official Web portal to all Federal, state and local government Web resources and services.
Facebook
NWS on Facebook

Important Change Regarding the AAWU Web Presence

 

Over the last several months, the AAWU has been working to navigate its webpages to a nationally supported server. Security, as well as other needs, have necessitated the change.  We have been given an extension for the site changeover while we diligently work at addressing feedback received. As of July 14, 2017, aawu.arh.noaa.gov will be discontinued. The new AAWU web address is weather.gov/aawu. It is now live and will run in-parallel with the old site until it is discontinued on July 14, 2017. Please continue to send any feedback or questions regarding the new webpages to nws.ar.aawu.webauthors@noaa.gov.  Thank you for your patience during this time of transition.
AAWU Home :: Display TAF Add Bookmark
TAF PAHN 260545Z 2606/2706 10007KT P6SM SCT030 OVC050
     FM261700 08007KT P6SM OVC050 PROB30 2617/2622 -RA OVC030
     FM262200 13010G18KT P6SM -RA OVC035
     FM270500 13008KT P6SM -RA OVC030
      AMD LTD TO CLD VIS AND WIND=

METAR PAHN 260054Z AUTO 12006KT 10SM OVC060 15/12 A3000 RMK AO2 SLP161 T01500117 TSNO= METAR PAHN 260154Z AUTO 13004KT 10SM OVC065 15/12 A2998 RMK AO2 SLP154 T01500117 TSNO= METAR PAHN 260254Z AUTO 13005KT 10SM OVC065 16/11 A2997 RMK AO2 SLP150 T01560111 58013 TSNO= METAR PAHN 260354Z AUTO 09004KT 10SM OVC065 14/11 A2996 RMK AO2 SLP149 T01440111 TSNO= METAR PAHN 260454Z AUTO 08004KT 10SM OVC065 14/11 A2996 RMK AO2 SLP147 T01440111 TSNO= METAR PAHN 260554Z AUTO 09004KT 10SM OVC065 14/11 A2995 RMK AO2 SLP145 T01390111 10156 20139 58005 TSNO=
 Alaska TAF Map

NOAA's National Weather Service
Alaska Aviation Weather Unit
6930 Sand Lake Road
Anchorage, AK 99502-1845
Disclaimer
Credits
Glossary
Privacy Policy
About Us
Career Opportunities
Contact AAWU Internet Services Site last modified: April, 17th 2012